createdAt,value
2023-01-31T00:00:23.794Z,0
2023-01-31T00:05:26.098Z,0
2023-01-31T00:10:30.261Z,0
2023-01-31T00:15:35.021Z,0
2023-01-31T00:20:38.724Z,0
2023-01-31T00:25:42.765Z,0
2023-01-31T00:30:46.918Z,0
2023-01-31T00:40:55.229Z,0
2023-01-31T00:45:59.387Z,0
2023-01-31T00:51:03.550Z,0
2023-01-31T00:56:07.745Z,0
2023-01-31T01:01:11.933Z,0
2023-01-31T01:06:16.079Z,0
2023-01-31T01:11:20.256Z,0
2023-01-31T01:16:24.460Z,0
2023-01-31T01:21:28.558Z,0
2023-01-31T01:26:32.939Z,0
2023-01-31T01:31:36.994Z,0
2023-01-31T01:36:41.062Z,0
2023-01-31T01:41:45.201Z,0
2023-01-31T01:46:49.413Z,0
2023-01-31T01:51:53.549Z,0
2023-01-31T01:56:55.788Z,0
2023-01-31T02:01:59.979Z,0
2023-01-31T02:07:02.246Z,0
2023-01-31T02:12:06.414Z,0
2023-01-31T02:17:08.675Z,0
2023-01-31T02:22:12.848Z,0
2023-01-31T02:27:16.982Z,0
2023-01-31T02:32:21.738Z,0
2023-01-31T02:37:25.608Z,0
2023-01-31T02:42:29.523Z,0
2023-01-31T02:47:33.649Z,0
2023-01-31T02:52:37.798Z,0
2023-01-31T02:57:42.012Z,0
2023-01-31T03:02:46.218Z,0
2023-01-31T03:07:50.337Z,0
2023-01-31T03:12:54.478Z,0
2023-01-31T03:17:58.752Z,0
2023-01-31T03:23:02.840Z,0
2023-01-31T03:28:06.984Z,0
2023-01-31T03:33:11.136Z,0
2023-01-31T03:38:15.391Z,0
2023-01-31T03:43:19.464Z,0
2023-01-31T03:53:27.792Z,0
2023-01-31T03:58:32.404Z,0
2023-01-31T04:03:36.104Z,0
2023-01-31T04:08:38.381Z,0
2023-01-31T04:13:42.580Z,0
2023-01-31T04:18:46.719Z,0
2023-01-31T04:23:50.879Z,0
2023-01-31T04:28:55.078Z,0
2023-01-31T04:33:59.251Z,0
2023-01-31T04:39:03.416Z,0
2023-01-31T04:44:08.007Z,0
2023-01-31T04:49:11.699Z,0
2023-01-31T04:54:15.890Z,0
2023-01-31T04:59:20.051Z,0
2023-01-31T05:04:24.183Z,0
2023-01-31T05:09:28.384Z,0
2023-01-31T05:14:32.681Z,0
2023-01-31T05:19:36.697Z,0
2023-01-31T05:24:40.885Z,0
2023-01-31T05:29:45.073Z,0
2023-01-31T05:34:49.208Z,0
2023-01-31T05:39:53.374Z,0
2023-01-31T05:44:57.513Z,0
2023-01-31T05:50:01.665Z,0
2023-01-31T05:55:03.948Z,0
2023-01-31T06:00:08.149Z,0
2023-01-31T06:05:10.440Z,0
2023-01-31T06:10:14.579Z,0
2023-01-31T06:15:16.820Z,0
2023-01-31T06:20:22.101Z,0
2023-01-31T06:25:25.164Z,0
2023-01-31T06:30:29.396Z,0
2023-01-31T06:35:33.484Z,0
2023-01-31T06:40:37.640Z,0
2023-01-31T06:45:41.883Z,0
2023-01-31T06:50:46.004Z,4
2023-01-31T06:55:50.126Z,9
2023-01-31T07:00:54.832Z,17
2023-01-31T07:05:58.478Z,48
2023-01-31T07:11:02.619Z,100
2023-01-31T07:16:06.884Z,168
2023-01-31T07:21:10.954Z,207
2023-01-31T07:26:15.147Z,383
2023-01-31T07:31:19.352Z,548
2023-01-31T07:36:23.605Z,662
2023-01-31T07:41:27.654Z,795
2023-01-31T07:46:32.266Z,570
2023-01-31T07:51:35.970Z,705
2023-01-31T07:56:40.101Z,875
2023-01-31T08:01:42.433Z,1090
2023-01-31T08:06:46.576Z,1094
2023-01-31T08:11:50.718Z,1502
2023-01-31T08:16:54.953Z,1275
2023-01-31T08:21:59.033Z,2103
2023-01-31T08:27:03.189Z,1570
2023-01-31T08:32:07.405Z,1403
2023-01-31T08:37:11.624Z,1206
2023-01-31T08:42:15.693Z,1474
2023-01-31T08:47:19.873Z,1572
2023-01-31T08:52:24.053Z,1138
2023-01-31T08:57:28.213Z,1221
2023-01-31T09:02:32.500Z,2469
2023-01-31T09:07:36.502Z,1814
2023-01-31T09:12:40.680Z,1550
2023-01-31T09:17:44.840Z,2745
2023-01-31T09:22:48.982Z,3069
2023-01-31T09:27:53.160Z,3723
2023-01-31T09:32:57.350Z,4537
2023-01-31T09:38:01.560Z,3862
2023-01-31T09:43:05.681Z,3935
2023-01-31T09:48:07.953Z,3214
2023-01-31T09:53:12.099Z,3884
2023-01-31T09:58:14.355Z,3965
2023-01-31T10:03:18.532Z,5100
2023-01-31T10:08:20.820Z,5061
2023-01-31T10:13:24.977Z,6670
2023-01-31T10:18:29.292Z,5490
2023-01-31T10:23:33.308Z,3147
2023-01-31T10:28:37.446Z,4258
2023-01-31T10:33:41.617Z,3903
2023-01-31T10:38:45.819Z,4464
2023-01-31T10:43:48.054Z,4136
2023-01-31T10:48:52.215Z,3316
2023-01-31T10:53:56.770Z,3953
2023-01-31T10:59:00.569Z,2180
2023-01-31T11:04:04.703Z,4316
2023-01-31T11:09:08.908Z,1673
2023-01-31T11:14:13.031Z,1536
2023-01-31T11:19:17.196Z,814
2023-01-31T11:24:21.377Z,2234
2023-01-31T11:29:25.530Z,1608
2023-01-31T11:34:29.687Z,1808
2023-01-31T11:39:33.854Z,2587
2023-01-31T11:44:38.012Z,2437
2023-01-31T11:49:42.168Z,1951
2023-01-31T11:54:44.440Z,3170
2023-01-31T11:59:48.605Z,2367
2023-01-31T12:04:52.793Z,2614
2023-01-31T12:09:55.069Z,1703
2023-01-31T12:14:59.226Z,2636
2023-01-31T12:20:09.067Z,3908
2023-01-31T12:25:07.544Z,1818
2023-01-31T12:30:11.852Z,735
2023-01-31T12:35:15.866Z,1798
2023-01-31T12:45:24.201Z,1777
2023-01-31T12:50:28.356Z,1686
2023-01-31T12:55:32.509Z,1730
2023-01-31T13:00:36.694Z,1425
2023-01-31T13:05:40.851Z,1595
2023-01-31T13:10:44.982Z,1348
2023-01-31T13:15:49.225Z,1151
2023-01-31T13:20:53.344Z,1315
2023-01-31T13:25:57.475Z,1386
2023-01-31T13:31:01.755Z,1722
2023-01-31T13:36:05.835Z,2487
2023-01-31T13:41:09.980Z,1501
2023-01-31T13:46:14.174Z,2143
2023-01-31T13:51:18.315Z,1835
2023-01-31T13:56:22.481Z,1621
2023-01-31T14:01:24.800Z,1993
2023-01-31T14:06:28.906Z,1908
2023-01-31T14:11:33.046Z,1108
2023-01-31T14:16:37.275Z,1603
2023-01-31T14:21:41.510Z,1400
2023-01-31T14:26:45.625Z,1182
2023-01-31T14:31:49.817Z,1066
2023-01-31T14:36:53.881Z,925
2023-01-31T14:41:58.074Z,575
2023-01-31T14:47:05.895Z,889
2023-01-31T14:52:06.373Z,711
2023-01-31T14:57:10.564Z,525
2023-01-31T15:02:14.832Z,403
2023-01-31T15:07:18.866Z,438
2023-01-31T15:12:23.052Z,410
2023-01-31T15:17:35.928Z,364
2023-01-31T15:22:31.327Z,497
2023-01-31T15:27:35.520Z,471
2023-01-31T15:32:39.659Z,207
2023-01-31T15:37:43.849Z,325
2023-01-31T15:42:48.038Z,260
2023-01-31T15:47:50.300Z,165
2023-01-31T15:52:54.451Z,106
2023-01-31T15:57:56.778Z,91
2023-01-31T16:03:01.010Z,53
2023-01-31T16:08:03.247Z,65
2023-01-31T16:13:07.347Z,30
2023-01-31T16:18:11.580Z,119
2023-01-31T16:23:15.719Z,130
2023-01-31T16:28:19.815Z,46
2023-01-31T16:33:23.998Z,35
2023-01-31T16:38:28.109Z,15
2023-01-31T16:43:32.328Z,7
2023-01-31T16:48:36.448Z,2
2023-01-31T16:53:40.632Z,0
2023-01-31T16:58:44.761Z,0
2023-01-31T17:03:48.929Z,0
2023-01-31T17:08:53.115Z,0
2023-01-31T17:13:57.257Z,0
2023-01-31T17:19:01.599Z,0
2023-01-31T17:24:05.660Z,0
2023-01-31T17:29:09.749Z,0
2023-01-31T17:34:13.985Z,0
2023-01-31T17:39:18.114Z,0
2023-01-31T17:44:22.454Z,0
2023-01-31T17:49:26.429Z,0
2023-01-31T17:54:28.694Z,0
2023-01-31T17:59:32.827Z,0
2023-01-31T18:04:37.017Z,0
2023-01-31T18:09:41.150Z,0
2023-01-31T18:14:45.352Z,0
2023-01-31T18:19:49.494Z,0
2023-01-31T18:24:53.645Z,0
2023-01-31T18:29:57.824Z,0
2023-01-31T18:35:01.982Z,0
2023-01-31T18:40:06.174Z,0
2023-01-31T18:45:10.303Z,0
2023-01-31T18:50:14.484Z,0
2023-01-31T18:55:19.267Z,0
2023-01-31T19:00:22.803Z,0
2023-01-31T19:05:26.954Z,0
2023-01-31T19:10:31.159Z,0
2023-01-31T19:15:35.286Z,0
2023-01-31T19:20:39.450Z,0
2023-01-31T19:25:43.633Z,0
2023-01-31T19:30:47.810Z,0
2023-01-31T19:35:51.947Z,0
2023-01-31T19:40:54.209Z,0
2023-01-31T19:45:58.464Z,0
2023-01-31T19:51:02.573Z,0
2023-01-31T19:56:06.687Z,0
2023-01-31T20:01:10.961Z,0
2023-01-31T20:06:15.007Z,0
2023-01-31T20:11:19.196Z,0
2023-01-31T20:16:23.461Z,0
2023-01-31T20:21:27.531Z,0
2023-01-31T20:26:31.731Z,0
2023-01-31T20:31:35.886Z,0
2023-01-31T20:36:40.003Z,0
2023-01-31T20:41:44.218Z,0
2023-01-31T20:46:48.301Z,0
2023-01-31T20:51:52.484Z,0
2023-01-31T20:56:56.674Z,0
2023-01-31T21:02:00.809Z,0
2023-01-31T21:07:04.982Z,0
2023-01-31T21:12:09.174Z,0
2023-01-31T21:17:13.304Z,0
2023-01-31T21:22:17.526Z,0
2023-01-31T21:27:19.795Z,0
2023-01-31T21:32:23.950Z,0
2023-01-31T21:37:26.202Z,0
2023-01-31T21:42:30.368Z,0
2023-01-31T21:47:34.516Z,0
2023-01-31T21:52:38.670Z,0
2023-01-31T21:57:42.821Z,0
2023-01-31T22:02:47.077Z,0
2023-01-31T22:07:51.157Z,0
2023-01-31T22:12:55.341Z,0
2023-01-31T22:17:59.541Z,0
2023-01-31T22:23:03.689Z,0
2023-01-31T22:28:07.841Z,0
2023-01-31T22:33:11.984Z,0
2023-01-31T22:38:16.181Z,0
2023-01-31T22:43:20.298Z,0
2023-01-31T22:48:24.457Z,0
2023-01-31T22:53:28.638Z,0
2023-01-31T22:58:32.795Z,0
2023-01-31T23:03:39.026Z,0
2023-01-31T23:08:41.188Z,0
2023-01-31T23:13:45.303Z,0
2023-01-31T23:18:49.485Z,0
2023-01-31T23:23:51.717Z,0
2023-01-31T23:28:55.911Z,0
2023-01-31T23:33:58.145Z,0
2023-01-31T23:39:02.353Z,0
2023-01-31T23:44:04.598Z,0
2023-01-31T23:49:08.777Z,0
2023-01-31T23:54:12.946Z,0
2023-01-31T23:59:17.116Z,0
